Mirror Lake, NH (03853)

10:54 AM EST on December 25, 2014 (GMT -0500)
WCYC | Change Station
CLOSE
Current Station
Personal Weather Station
Location: Wolfeboro, NH
Elevation: 524 ft
Nearby Weather Stations

Elev 524 ft 43.58 °N, 71.22 °W | Updated 8 seconds ago

Mostly Cloudy
Mostly Cloudy
45.6 °F
Feels Like 46 °F
N
3.0
Wind Variable Wind from WSW
Gusts 17.0 mph

Today
High -- | Low -- °F
--% Chance of Precip.
Yesterday
High -- | Low -- °F
Precip. -- in
7:17 AM 4:13 PM
Waxing Crescent, 17% visible
Pressure 29.50 in
Visibility 10.0 miles
Clouds Scattered Clouds 4200 ft
Mostly Cloudy 4900 ft
Windchill 46 °F
Dew Point 40 °F
Humidity 82%
Rainfall 0.13 in
Snow Depth Not available.
UV 1 out of 12
Pollen .10 out of 12
Air Quality Not available.
Flu Activity Not available.
METAR K1P1 251535Z AUTO 30004KT 10SM SCT042 BKN049 07/04 A2950 RMK AO2 T00700043

More Conditions Fewer Conditions

Pressure 29.50 in
Visibility 10.0 miles
Clouds Scattered Clouds 4200 ft
Mostly Cloudy 4900 ft
Windchill 46 °F
Dew Point 40 °F
Humidity 82%
Rainfall 0.13 in
Snow Depth Not available.
UV 1 out of 12
Pollen .10 out of 12
Air Quality Not available.
Flu Activity Not available.
METAR K1P1 251535Z AUTO 30004KT 10SM SCT042 BKN049 07/04 A2950 RMK AO2 T00700043

More Conditions Fewer Conditions

10-Day Weather Forecast

Almanac

Astronomy

Dec. 25, 2014 Rise Set
Actual Time
Civil Twilight
Nautical Twilight
Astronomical Twilight
Moon
Length of Visible Light
Length of Day
Tomorrow will be .
, % of the Moon is Illuminated

Today's Extremes

State Highs State Lows

Community

WunderPhotos

Upload Photos

1,780,315 photos uploaded!

WunderBlogs® & News

Nearby

Air Quality

  Air Quality AQ Index Pollutant
Not available.

Snow Depth

Station Depth Elevation

Earthquake Activity

City Distance Mag. Time & Date
Minimum magnitude displayed is 2.5.

Coastal Water Temperatures

Place Temperature

Nearby Weather Stations